sensor_id;sensor_type;location;lat;lon;timestamp;P1;durP1;ratioP1;P2;durP2;ratioP2
21352;SDS011;10834;52.268;6.770;2023-04-06T00:00:44;10.93;;;7.17;;
21352;SDS011;10834;52.268;6.770;2023-04-06T00:03:30;10.10;;;6.73;;
21352;SDS011;10834;52.268;6.770;2023-04-06T00:06:16;9.33;;;6.90;;
21352;SDS011;10834;52.268;6.770;2023-04-06T00:09:02;10.20;;;7.50;;
21352;SDS011;10834;52.268;6.770;2023-04-06T00:11:49;12.43;;;8.13;;
21352;SDS011;10834;52.268;6.770;2023-04-06T00:14:35;9.03;;;6.33;;
21352;SDS011;10834;52.268;6.770;2023-04-06T00:17:21;10.90;;;7.70;;
21352;SDS011;10834;52.268;6.770;2023-04-06T00:20:07;8.30;;;6.80;;
21352;SDS011;10834;52.268;6.770;2023-04-06T00:22:54;14.93;;;7.57;;
21352;SDS011;10834;52.268;6.770;2023-04-06T00:25:40;11.87;;;8.37;;
21352;SDS011;10834;52.268;6.770;2023-04-06T00:28:26;15.93;;;7.57;;
21352;SDS011;10834;52.268;6.770;2023-04-06T00:31:12;10.50;;;7.17;;
21352;SDS011;10834;52.268;6.770;2023-04-06T00:33:58;13.33;;;8.50;;
21352;SDS011;10834;52.268;6.770;2023-04-06T00:36:44;10.03;;;7.67;;
21352;SDS011;10834;52.268;6.770;2023-04-06T00:39:30;9.77;;;7.43;;
21352;SDS011;10834;52.268;6.770;2023-04-06T00:42:16;11.37;;;7.53;;
21352;SDS011;10834;52.268;6.770;2023-04-06T00:45:10;13.37;;;7.43;;
21352;SDS011;10834;52.268;6.770;2023-04-06T00:47:56;8.53;;;7.23;;
21352;SDS011;10834;52.268;6.770;2023-04-06T00:50:42;11.87;;;7.77;;
21352;SDS011;10834;52.268;6.770;2023-04-06T00:53:28;11.57;;;7.00;;
21352;SDS011;10834;52.268;6.770;2023-04-06T00:56:15;10.33;;;7.17;;
21352;SDS011;10834;52.268;6.770;2023-04-06T00:59:01;12.33;;;7.47;;
21352;SDS011;10834;52.268;6.770;2023-04-06T01:01:47;11.80;;;7.33;;
21352;SDS011;10834;52.268;6.770;2023-04-06T01:04:34;9.93;;;7.47;;
21352;SDS011;10834;52.268;6.770;2023-04-06T01:07:20;11.47;;;7.40;;
21352;SDS011;10834;52.268;6.770;2023-04-06T01:10:06;15.47;;;7.50;;
21352;SDS011;10834;52.268;6.770;2023-04-06T01:12:52;11.03;;;7.83;;
21352;SDS011;10834;52.268;6.770;2023-04-06T01:15:38;13.23;;;8.57;;
21352;SDS011;10834;52.268;6.770;2023-04-06T01:18:26;12.33;;;7.80;;
21352;SDS011;10834;52.268;6.770;2023-04-06T01:21:12;13.60;;;8.23;;
21352;SDS011;10834;52.268;6.770;2023-04-06T01:24:00;14.70;;;8.67;;
21352;SDS011;10834;52.268;6.770;2023-04-06T01:26:47;11.63;;;7.73;;
21352;SDS011;10834;52.268;6.770;2023-04-06T01:29:33;14.07;;;8.40;;
21352;SDS011;10834;52.268;6.770;2023-04-06T01:32:19;11.43;;;8.67;;
21352;SDS011;10834;52.268;6.770;2023-04-06T01:35:06;15.97;;;8.30;;
21352;SDS011;10834;52.268;6.770;2023-04-06T01:37:52;14.33;;;7.87;;
21352;SDS011;10834;52.268;6.770;2023-04-06T01:40:38;11.37;;;7.57;;
21352;SDS011;10834;52.268;6.770;2023-04-06T01:43:24;13.27;;;8.17;;
21352;SDS011;10834;52.268;6.770;2023-04-06T01:46:10;12.13;;;7.70;;
21352;SDS011;10834;52.268;6.770;2023-04-06T01:48:56;13.50;;;8.50;;
21352;SDS011;10834;52.268;6.770;2023-04-06T01:51:42;10.83;;;7.73;;
21352;SDS011;10834;52.268;6.770;2023-04-06T01:54:28;12.67;;;8.03;;
21352;SDS011;10834;52.268;6.770;2023-04-06T01:57:14;13.23;;;8.13;;
21352;SDS011;10834;52.268;6.770;2023-04-06T02:00:00;14.77;;;8.87;;
21352;SDS011;10834;52.268;6.770;2023-04-06T02:02:46;10.83;;;8.30;;
21352;SDS011;10834;52.268;6.770;2023-04-06T02:05:33;10.93;;;8.17;;
21352;SDS011;10834;52.268;6.770;2023-04-06T02:08:23;13.00;;;7.77;;
21352;SDS011;10834;52.268;6.770;2023-04-06T02:11:09;14.20;;;8.80;;
21352;SDS011;10834;52.268;6.770;2023-04-06T02:13:55;12.60;;;8.30;;
21352;SDS011;10834;52.268;6.770;2023-04-06T02:16:42;15.47;;;9.10;;
21352;SDS011;10834;52.268;6.770;2023-04-06T02:19:28;13.10;;;8.60;;
21352;SDS011;10834;52.268;6.770;2023-04-06T02:22:14;13.20;;;9.13;;
21352;SDS011;10834;52.268;6.770;2023-04-06T02:25:00;14.27;;;9.70;;
21352;SDS011;10834;52.268;6.770;2023-04-06T02:27:47;13.43;;;8.53;;
21352;SDS011;10834;52.268;6.770;2023-04-06T02:30:33;13.73;;;8.97;;
21352;SDS011;10834;52.268;6.770;2023-04-06T02:33:20;11.50;;;7.80;;
21352;SDS011;10834;52.268;6.770;2023-04-06T02:36:06;13.97;;;8.13;;
21352;SDS011;10834;52.268;6.770;2023-04-06T02:38:52;14.83;;;8.67;;
21352;SDS011;10834;52.268;6.770;2023-04-06T02:41:38;12.23;;;8.37;;
21352;SDS011;10834;52.268;6.770;2023-04-06T02:44:24;13.20;;;8.73;;
21352;SDS011;10834;52.268;6.770;2023-04-06T02:47:10;12.73;;;7.70;;
21352;SDS011;10834;52.268;6.770;2023-04-06T02:49:56;15.97;;;9.47;;
21352;SDS011;10834;52.268;6.770;2023-04-06T02:52:43;14.70;;;7.97;;
21352;SDS011;10834;52.268;6.770;2023-04-06T02:55:29;13.13;;;8.63;;
21352;SDS011;10834;52.268;6.770;2023-04-06T02:58:15;12.90;;;8.97;;
21352;SDS011;10834;52.268;6.770;2023-04-06T03:01:01;13.47;;;9.10;;
21352;SDS011;10834;52.268;6.770;2023-04-06T03:03:48;11.57;;;8.67;;
21352;SDS011;10834;52.268;6.770;2023-04-06T03:06:34;15.67;;;8.90;;
21352;SDS011;10834;52.268;6.770;2023-04-06T03:09:20;15.40;;;9.27;;
21352;SDS011;10834;52.268;6.770;2023-04-06T03:12:07;14.63;;;8.60;;
21352;SDS011;10834;52.268;6.770;2023-04-06T03:14:53;18.20;;;9.40;;
21352;SDS011;10834;52.268;6.770;2023-04-06T03:17:39;11.10;;;8.20;;
21352;SDS011;10834;52.268;6.770;2023-04-06T03:20:26;12.07;;;8.60;;
21352;SDS011;10834;52.268;6.770;2023-04-06T03:23:12;14.83;;;9.00;;
21352;SDS011;10834;52.268;6.770;2023-04-06T03:25:58;14.43;;;8.43;;
21352;SDS011;10834;52.268;6.770;2023-04-06T03:28:44;16.10;;;8.93;;
21352;SDS011;10834;52.268;6.770;2023-04-06T03:31:30;18.23;;;9.40;;
21352;SDS011;10834;52.268;6.770;2023-04-06T03:34:17;17.20;;;8.97;;
21352;SDS011;10834;52.268;6.770;2023-04-06T03:37:03;14.53;;;9.07;;
21352;SDS011;10834;52.268;6.770;2023-04-06T03:39:49;15.50;;;9.03;;
21352;SDS011;10834;52.268;6.770;2023-04-06T03:42:35;13.03;;;8.37;;
21352;SDS011;10834;52.268;6.770;2023-04-06T03:45:21;10.90;;;8.87;;
21352;SDS011;10834;52.268;6.770;2023-04-06T03:48:07;11.20;;;8.83;;
21352;SDS011;10834;52.268;6.770;2023-04-06T03:50:53;12.03;;;9.00;;
21352;SDS011;10834;52.268;6.770;2023-04-06T03:53:39;19.23;;;10.27;;
21352;SDS011;10834;52.268;6.770;2023-04-06T03:56:25;13.23;;;8.10;;
21352;SDS011;10834;52.268;6.770;2023-04-06T03:59:12;12.73;;;8.30;;
21352;SDS011;10834;52.268;6.770;2023-04-06T04:01:58;16.37;;;9.87;;
21352;SDS011;10834;52.268;6.770;2023-04-06T04:04:44;13.17;;;9.47;;
21352;SDS011;10834;52.268;6.770;2023-04-06T04:07:30;18.03;;;9.53;;
21352;SDS011;10834;52.268;6.770;2023-04-06T04:10:16;15.13;;;9.97;;
21352;SDS011;10834;52.268;6.770;2023-04-06T04:13:02;17.20;;;10.30;;
21352;SDS011;10834;52.268;6.770;2023-04-06T04:15:48;14.40;;;9.60;;
21352;SDS011;10834;52.268;6.770;2023-04-06T04:18:34;18.70;;;10.47;;
21352;SDS011;10834;52.268;6.770;2023-04-06T04:21:20;15.50;;;9.10;;
21352;SDS011;10834;52.268;6.770;2023-04-06T04:24:06;12.87;;;8.70;;
21352;SDS011;10834;52.268;6.770;2023-04-06T04:26:52;16.20;;;9.03;;
21352;SDS011;10834;52.268;6.770;2023-04-06T04:29:38;20.07;;;9.20;;
21352;SDS011;10834;52.268;6.770;2023-04-06T04:32:24;14.37;;;9.17;;
21352;SDS011;10834;52.268;6.770;2023-04-06T04:35:12;13.20;;;8.97;;
21352;SDS011;10834;52.268;6.770;2023-04-06T04:37:58;15.57;;;9.80;;
21352;SDS011;10834;52.268;6.770;2023-04-06T04:40:45;16.97;;;10.83;;
21352;SDS011;10834;52.268;6.770;2023-04-06T04:43:31;13.33;;;10.07;;
21352;SDS011;10834;52.268;6.770;2023-04-06T04:46:17;15.47;;;10.07;;
21352;SDS011;10834;52.268;6.770;2023-04-06T04:49:03;16.13;;;9.60;;
21352;SDS011;10834;52.268;6.770;2023-04-06T04:51:49;16.60;;;10.03;;
21352;SDS011;10834;52.268;6.770;2023-04-06T04:54:37;13.83;;;9.30;;
21352;SDS011;10834;52.268;6.770;2023-04-06T04:57:25;15.83;;;9.60;;
21352;SDS011;10834;52.268;6.770;2023-04-06T05:00:12;15.67;;;9.97;;
21352;SDS011;10834;52.268;6.770;2023-04-06T05:02:58;18.03;;;11.60;;
21352;SDS011;10834;52.268;6.770;2023-04-06T05:05:44;17.83;;;9.97;;
21352;SDS011;10834;52.268;6.770;2023-04-06T05:08:30;19.70;;;9.40;;
21352;SDS011;10834;52.268;6.770;2023-04-06T05:11:17;13.93;;;9.10;;
21352;SDS011;10834;52.268;6.770;2023-04-06T05:14:03;15.20;;;10.07;;
21352;SDS011;10834;52.268;6.770;2023-04-06T05:16:49;19.93;;;11.30;;
21352;SDS011;10834;52.268;6.770;2023-04-06T05:19:35;15.70;;;9.97;;
21352;SDS011;10834;52.268;6.770;2023-04-06T05:22:21;14.60;;;10.13;;
21352;SDS011;10834;52.268;6.770;2023-04-06T05:25:07;21.73;;;11.30;;
21352;SDS011;10834;52.268;6.770;2023-04-06T05:27:54;14.77;;;9.50;;
21352;SDS011;10834;52.268;6.770;2023-04-06T05:30:40;14.17;;;10.17;;
21352;SDS011;10834;52.268;6.770;2023-04-06T05:33:27;14.03;;;9.33;;
21352;SDS011;10834;52.268;6.770;2023-04-06T05:36:14;16.00;;;9.57;;
21352;SDS011;10834;52.268;6.770;2023-04-06T05:39:00;14.47;;;9.60;;
21352;SDS011;10834;52.268;6.770;2023-04-06T05:41:46;15.50;;;10.87;;
21352;SDS011;10834;52.268;6.770;2023-04-06T05:44:32;15.80;;;10.70;;
21352;SDS011;10834;52.268;6.770;2023-04-06T05:47:18;18.50;;;11.47;;
21352;SDS011;10834;52.268;6.770;2023-04-06T05:50:04;15.90;;;9.97;;
21352;SDS011;10834;52.268;6.770;2023-04-06T05:52:51;15.97;;;11.00;;
21352;SDS011;10834;52.268;6.770;2023-04-06T05:55:37;18.17;;;10.53;;
21352;SDS011;10834;52.268;6.770;2023-04-06T05:58:23;20.40;;;10.10;;
21352;SDS011;10834;52.268;6.770;2023-04-06T06:01:09;19.47;;;10.47;;
21352;SDS011;10834;52.268;6.770;2023-04-06T06:03:55;21.30;;;11.63;;
21352;SDS011;10834;52.268;6.770;2023-04-06T06:06:41;18.50;;;11.33;;
21352;SDS011;10834;52.268;6.770;2023-04-06T06:09:27;19.77;;;12.57;;
21352;SDS011;10834;52.268;6.770;2023-04-06T06:12:13;22.17;;;11.70;;
21352;SDS011;10834;52.268;6.770;2023-04-06T06:14:59;16.77;;;11.43;;
21352;SDS011;10834;52.268;6.770;2023-04-06T06:17:46;23.93;;;12.70;;
21352;SDS011;10834;52.268;6.770;2023-04-06T06:20:32;18.60;;;10.77;;
21352;SDS011;10834;52.268;6.770;2023-04-06T06:23:18;15.03;;;10.40;;
21352;SDS011;10834;52.268;6.770;2023-04-06T06:26:04;15.13;;;10.57;;
21352;SDS011;10834;52.268;6.770;2023-04-06T06:28:50;17.93;;;11.23;;
21352;SDS011;10834;52.268;6.770;2023-04-06T06:31:36;17.13;;;10.97;;
21352;SDS011;10834;52.268;6.770;2023-04-06T06:34:22;18.23;;;10.63;;
21352;SDS011;10834;52.268;6.770;2023-04-06T06:37:08;15.67;;;10.37;;
21352;SDS011;10834;52.268;6.770;2023-04-06T06:39:54;20.83;;;11.53;;
21352;SDS011;10834;52.268;6.770;2023-04-06T06:42:40;18.60;;;10.67;;
21352;SDS011;10834;52.268;6.770;2023-04-06T06:45:26;17.90;;;11.90;;
21352;SDS011;10834;52.268;6.770;2023-04-06T06:48:14;21.40;;;13.00;;
21352;SDS011;10834;52.268;6.770;2023-04-06T06:51:01;18.53;;;11.17;;
21352;SDS011;10834;52.268;6.770;2023-04-06T06:53:47;18.33;;;10.87;;
21352;SDS011;10834;52.268;6.770;2023-04-06T06:56:33;22.00;;;11.07;;
21352;SDS011;10834;52.268;6.770;2023-04-06T06:59:21;25.17;;;11.47;;
21352;SDS011;10834;52.268;6.770;2023-04-06T07:02:07;19.47;;;11.80;;
21352;SDS011;10834;52.268;6.770;2023-04-06T07:04:53;19.37;;;11.33;;
21352;SDS011;10834;52.268;6.770;2023-04-06T07:07:40;21.53;;;12.30;;
21352;SDS011;10834;52.268;6.770;2023-04-06T07:10:26;23.50;;;12.77;;
21352;SDS011;10834;52.268;6.770;2023-04-06T07:13:12;19.57;;;13.07;;
21352;SDS011;10834;52.268;6.770;2023-04-06T07:16:03;22.43;;;11.77;;
21352;SDS011;10834;52.268;6.770;2023-04-06T07:18:49;19.30;;;12.80;;
21352;SDS011;10834;52.268;6.770;2023-04-06T07:21:36;20.60;;;12.50;;
21352;SDS011;10834;52.268;6.770;2023-04-06T07:24:22;21.87;;;12.57;;
21352;SDS011;10834;52.268;6.770;2023-04-06T07:27:08;24.37;;;12.50;;
21352;SDS011;10834;52.268;6.770;2023-04-06T07:29:54;22.23;;;12.33;;
21352;SDS011;10834;52.268;6.770;2023-04-06T07:32:40;19.63;;;11.07;;
21352;SDS011;10834;52.268;6.770;2023-04-06T07:35:26;21.93;;;13.67;;
21352;SDS011;10834;52.268;6.770;2023-04-06T07:38:13;20.83;;;13.93;;
21352;SDS011;10834;52.268;6.770;2023-04-06T07:40:59;18.92;;;13.30;;
21352;SDS011;10834;52.268;6.770;2023-04-06T07:43:45;22.58;;;13.80;;
21352;SDS011;10834;52.268;6.770;2023-04-06T07:46:31;18.15;;;13.27;;
21352;SDS011;10834;52.268;6.770;2023-04-06T07:49:17;16.75;;;14.23;;
21352;SDS011;10834;52.268;6.770;2023-04-06T07:52:03;18.73;;;13.50;;
21352;SDS011;10834;52.268;6.770;2023-04-06T07:54:50;14.85;;;13.27;;
21352;SDS011;10834;52.268;6.770;2023-04-06T07:57:36;16.48;;;14.57;;
21352;SDS011;10834;52.268;6.770;2023-04-06T08:00:22;19.48;;;15.73;;
21352;SDS011;10834;52.268;6.770;2023-04-06T08:03:08;18.27;;;14.82;;
21352;SDS011;10834;52.268;6.770;2023-04-06T08:05:54;18.45;;;15.32;;
21352;SDS011;10834;52.268;6.770;2023-04-06T08:08:41;19.85;;;16.77;;
21352;SDS011;10834;52.268;6.770;2023-04-06T08:11:27;17.40;;;15.43;;
21352;SDS011;10834;52.268;6.770;2023-04-06T08:14:14;17.73;;;15.55;;
21352;SDS011;10834;52.268;6.770;2023-04-06T08:17:01;21.00;;;16.45;;
21352;SDS011;10834;52.268;6.770;2023-04-06T08:19:47;21.77;;;16.55;;
21352;SDS011;10834;52.268;6.770;2023-04-06T08:22:33;19.98;;;16.50;;
21352;SDS011;10834;52.268;6.770;2023-04-06T08:25:19;17.65;;;15.93;;
21352;SDS011;10834;52.268;6.770;2023-04-06T08:28:05;19.48;;;16.98;;
21352;SDS011;10834;52.268;6.770;2023-04-06T08:30:51;22.08;;;16.25;;
21352;SDS011;10834;52.268;6.770;2023-04-06T08:33:37;20.58;;;16.60;;
21352;SDS011;10834;52.268;6.770;2023-04-06T08:36:24;21.45;;;16.70;;
21352;SDS011;10834;52.268;6.770;2023-04-06T08:39:10;19.25;;;15.77;;
21352;SDS011;10834;52.268;6.770;2023-04-06T08:41:56;20.50;;;17.30;;
21352;SDS011;10834;52.268;6.770;2023-04-06T08:44:45;21.13;;;17.42;;
21352;SDS011;10834;52.268;6.770;2023-04-06T08:47:31;20.27;;;16.42;;
21352;SDS011;10834;52.268;6.770;2023-04-06T08:50:17;18.80;;;16.83;;
21352;SDS011;10834;52.268;6.770;2023-04-06T08:53:04;20.60;;;17.00;;
21352;SDS011;10834;52.268;6.770;2023-04-06T08:55:51;20.20;;;17.20;;
21352;SDS011;10834;52.268;6.770;2023-04-06T08:58:39;22.73;;;17.13;;
21352;SDS011;10834;52.268;6.770;2023-04-06T09:01:26;20.15;;;16.30;;
21352;SDS011;10834;52.268;6.770;2023-04-06T09:04:13;21.38;;;15.60;;
21352;SDS011;10834;52.268;6.770;2023-04-06T09:06:59;17.48;;;15.60;;
21352;SDS011;10834;52.268;6.770;2023-04-06T09:09:46;17.95;;;15.48;;
21352;SDS011;10834;52.268;6.770;2023-04-06T09:12:36;19.80;;;15.52;;
21352;SDS011;10834;52.268;6.770;2023-04-06T09:15:23;18.67;;;14.43;;
21352;SDS011;10834;52.268;6.770;2023-04-06T09:18:09;22.45;;;15.38;;
21352;SDS011;10834;52.268;6.770;2023-04-06T09:21:01;20.65;;;15.50;;
21352;SDS011;10834;52.268;6.770;2023-04-06T09:23:57;16.65;;;13.82;;
21352;SDS011;10834;52.268;6.770;2023-04-06T09:26:47;18.48;;;14.82;;
21352;SDS011;10834;52.268;6.770;2023-04-06T09:29:33;18.33;;;13.85;;
21352;SDS011;10834;52.268;6.770;2023-04-06T09:32:22;25.73;;;15.48;;
21352;SDS011;10834;52.268;6.770;2023-04-06T09:35:08;16.92;;;14.30;;
21352;SDS011;10834;52.268;6.770;2023-04-06T09:37:54;21.90;;;13.65;;
21352;SDS011;10834;52.268;6.770;2023-04-06T09:40:50;19.00;;;14.73;;
21352;SDS011;10834;52.268;6.770;2023-04-06T09:43:37;17.40;;;14.40;;
21352;SDS011;10834;52.268;6.770;2023-04-06T09:46:23;18.38;;;14.75;;
21352;SDS011;10834;52.268;6.770;2023-04-06T09:49:09;18.80;;;15.25;;
21352;SDS011;10834;52.268;6.770;2023-04-06T09:52:00;20.42;;;14.57;;
21352;SDS011;10834;52.268;6.770;2023-04-06T09:54:49;20.02;;;13.95;;
21352;SDS011;10834;52.268;6.770;2023-04-06T09:57:45;22.23;;;15.75;;
21352;SDS011;10834;52.268;6.770;2023-04-06T10:00:40;21.13;;;15.32;;
21352;SDS011;10834;52.268;6.770;2023-04-06T10:06:39;19.92;;;14.93;;
21352;SDS011;10834;52.268;6.770;2023-04-06T10:09:28;21.23;;;16.27;;
21352;SDS011;10834;52.268;6.770;2023-04-06T10:12:21;20.38;;;15.38;;
21352;SDS011;10834;52.268;6.770;2023-04-06T10:15:07;17.67;;;15.38;;
21352;SDS011;10834;52.268;6.770;2023-04-06T10:17:56;22.40;;;14.63;;
21352;SDS011;10834;52.268;6.770;2023-04-06T10:21:04;20.65;;;15.55;;
21352;SDS011;10834;52.268;6.770;2023-04-06T10:24:00;20.13;;;15.85;;
21352;SDS011;10834;52.268;6.770;2023-04-06T10:27:01;21.52;;;16.13;;
21352;SDS011;10834;52.268;6.770;2023-04-06T10:29:48;18.48;;;15.63;;
21352;SDS011;10834;52.268;6.770;2023-04-06T10:32:37;23.90;;;16.33;;
21352;SDS011;10834;52.268;6.770;2023-04-06T10:35:24;20.73;;;16.38;;
21352;SDS011;10834;52.268;6.770;2023-04-06T10:38:21;19.33;;;16.27;;
21352;SDS011;10834;52.268;6.770;2023-04-06T10:41:23;20.38;;;16.67;;
21352;SDS011;10834;52.268;6.770;2023-04-06T10:44:17;24.98;;;17.63;;
21352;SDS011;10834;52.268;6.770;2023-04-06T10:47:06;24.25;;;17.35;;
21352;SDS011;10834;52.268;6.770;2023-04-06T10:50:04;23.00;;;17.77;;
21352;SDS011;10834;52.268;6.770;2023-04-06T10:53:00;25.15;;;18.70;;
21352;SDS011;10834;52.268;6.770;2023-04-06T10:55:47;25.50;;;18.02;;
21352;SDS011;10834;52.268;6.770;2023-04-06T10:58:35;21.55;;;16.42;;
21352;SDS011;10834;52.268;6.770;2023-04-06T11:01:21;26.13;;;17.77;;
21352;SDS011;10834;52.268;6.770;2023-04-06T11:04:09;21.23;;;16.23;;
21352;SDS011;10834;52.268;6.770;2023-04-06T11:06:59;20.35;;;15.60;;
21352;SDS011;10834;52.268;6.770;2023-04-06T11:09:49;23.52;;;16.33;;
21352;SDS011;10834;52.268;6.770;2023-04-06T11:12:35;25.75;;;17.23;;
21352;SDS011;10834;52.268;6.770;2023-04-06T11:15:21;23.40;;;17.00;;
21352;SDS011;10834;52.268;6.770;2023-04-06T11:18:07;21.88;;;16.20;;
21352;SDS011;10834;52.268;6.770;2023-04-06T11:20:54;22.77;;;16.23;;
21352;SDS011;10834;52.268;6.770;2023-04-06T11:23:40;23.42;;;16.30;;
21352;SDS011;10834;52.268;6.770;2023-04-06T11:26:26;20.17;;;15.82;;
21352;SDS011;10834;52.268;6.770;2023-04-06T11:29:12;24.55;;;16.48;;
21352;SDS011;10834;52.268;6.770;2023-04-06T11:32:01;21.58;;;15.65;;
21352;SDS011;10834;52.268;6.770;2023-04-06T11:34:51;22.67;;;16.05;;
21352;SDS011;10834;52.268;6.770;2023-04-06T11:37:37;23.00;;;15.68;;
21352;SDS011;10834;52.268;6.770;2023-04-06T11:40:23;21.85;;;15.23;;
21352;SDS011;10834;52.268;6.770;2023-04-06T11:43:13;23.10;;;16.13;;
21352;SDS011;10834;52.268;6.770;2023-04-06T11:46:00;22.80;;;15.80;;
21352;SDS011;10834;52.268;6.770;2023-04-06T11:48:47;21.13;;;15.65;;
21352;SDS011;10834;52.268;6.770;2023-04-06T11:51:35;21.85;;;15.45;;
21352;SDS011;10834;52.268;6.770;2023-04-06T11:54:37;23.42;;;15.27;;
21352;SDS011;10834;52.268;6.770;2023-04-06T11:57:23;21.33;;;15.90;;
21352;SDS011;10834;52.268;6.770;2023-04-06T12:00:11;25.20;;;15.68;;
21352;SDS011;10834;52.268;6.770;2023-04-06T12:02:57;22.00;;;14.98;;
21352;SDS011;10834;52.268;6.770;2023-04-06T12:05:44;22.15;;;15.48;;
21352;SDS011;10834;52.268;6.770;2023-04-06T12:08:30;22.73;;;15.38;;
21352;SDS011;10834;52.268;6.770;2023-04-06T12:11:16;21.55;;;15.98;;
21352;SDS011;10834;52.268;6.770;2023-04-06T12:14:04;23.70;;;15.75;;
21352;SDS011;10834;52.268;6.770;2023-04-06T12:16:50;20.48;;;14.60;;
21352;SDS011;10834;52.268;6.770;2023-04-06T12:19:36;23.95;;;16.17;;
21352;SDS011;10834;52.268;6.770;2023-04-06T12:22:23;24.15;;;16.63;;
21352;SDS011;10834;52.268;6.770;2023-04-06T12:25:09;25.13;;;16.85;;
21352;SDS011;10834;52.268;6.770;2023-04-06T12:27:55;26.23;;;16.23;;
21352;SDS011;10834;52.268;6.770;2023-04-06T12:30:41;30.70;;;16.77;;
21352;SDS011;10834;52.268;6.770;2023-04-06T12:33:28;24.15;;;16.63;;
21352;SDS011;10834;52.268;6.770;2023-04-06T12:36:14;23.65;;;15.57;;
21352;SDS011;10834;52.268;6.770;2023-04-06T12:39:01;27.48;;;16.73;;
21352;SDS011;10834;52.268;6.770;2023-04-06T12:41:47;22.92;;;16.33;;
21352;SDS011;10834;52.268;6.770;2023-04-06T12:44:34;22.42;;;15.75;;
21352;SDS011;10834;52.268;6.770;2023-04-06T12:47:19;23.55;;;15.88;;
21352;SDS011;10834;52.268;6.770;2023-04-06T12:50:06;22.80;;;15.02;;
21352;SDS011;10834;52.268;6.770;2023-04-06T12:52:52;25.08;;;15.90;;
21352;SDS011;10834;52.268;6.770;2023-04-06T12:55:39;24.52;;;16.77;;
21352;SDS011;10834;52.268;6.770;2023-04-06T12:58:25;24.50;;;16.83;;
21352;SDS011;10834;52.268;6.770;2023-04-06T13:01:14;24.73;;;15.60;;
21352;SDS011;10834;52.268;6.770;2023-04-06T13:04:01;21.92;;;15.05;;
21352;SDS011;10834;52.268;6.770;2023-04-06T13:06:47;22.17;;;14.75;;
21352;SDS011;10834;52.268;6.770;2023-04-06T13:09:33;28.00;;;15.63;;
21352;SDS011;10834;52.268;6.770;2023-04-06T13:12:20;22.42;;;14.27;;
21352;SDS011;10834;52.268;6.770;2023-04-06T13:15:06;19.55;;;14.05;;
21352;SDS011;10834;52.268;6.770;2023-04-06T13:17:52;20.58;;;13.60;;
21352;SDS011;10834;52.268;6.770;2023-04-06T13:20:38;20.50;;;12.60;;
21352;SDS011;10834;52.268;6.770;2023-04-06T13:23:25;17.40;;;11.32;;
21352;SDS011;10834;52.268;6.770;2023-04-06T13:26:11;14.73;;;10.32;;
21352;SDS011;10834;52.268;6.770;2023-04-06T13:28:59;11.57;;;7.75;;
21352;SDS011;10834;52.268;6.770;2023-04-06T13:31:46;10.68;;;6.78;;
21352;SDS011;10834;52.268;6.770;2023-04-06T13:34:32;9.13;;;6.40;;
21352;SDS011;10834;52.268;6.770;2023-04-06T13:37:18;11.40;;;8.07;;
21352;SDS011;10834;52.268;6.770;2023-04-06T13:40:04;18.05;;;10.18;;
21352;SDS011;10834;52.268;6.770;2023-04-06T13:42:51;18.40;;;10.20;;
21352;SDS011;10834;52.268;6.770;2023-04-06T13:45:37;17.02;;;9.50;;
21352;SDS011;10834;52.268;6.770;2023-04-06T13:48:24;13.07;;;9.23;;
21352;SDS011;10834;52.268;6.770;2023-04-06T13:51:11;16.15;;;10.40;;
21352;SDS011;10834;52.268;6.770;2023-04-06T13:53:58;17.02;;;11.45;;
21352;SDS011;10834;52.268;6.770;2023-04-06T13:56:44;13.95;;;10.88;;
21352;SDS011;10834;52.268;6.770;2023-04-06T13:59:36;18.25;;;10.90;;
21352;SDS011;10834;52.268;6.770;2023-04-06T14:02:22;15.32;;;11.45;;
21352;SDS011;10834;52.268;6.770;2023-04-06T14:05:12;16.23;;;10.80;;
21352;SDS011;10834;52.268;6.770;2023-04-06T14:07:58;12.30;;;9.15;;
21352;SDS011;10834;52.268;6.770;2023-04-06T14:10:44;15.03;;;10.77;;
21352;SDS011;10834;52.268;6.770;2023-04-06T14:13:30;14.67;;;10.00;;
21352;SDS011;10834;52.268;6.770;2023-04-06T14:16:16;19.30;;;12.40;;
21352;SDS011;10834;52.268;6.770;2023-04-06T14:19:04;19.50;;;11.50;;
21352;SDS011;10834;52.268;6.770;2023-04-06T14:21:50;16.57;;;10.50;;
21352;SDS011;10834;52.268;6.770;2023-04-06T14:24:36;17.77;;;12.27;;
21352;SDS011;10834;52.268;6.770;2023-04-06T14:27:23;16.40;;;12.10;;
21352;SDS011;10834;52.268;6.770;2023-04-06T14:30:10;17.40;;;12.77;;
21352;SDS011;10834;52.268;6.770;2023-04-06T14:32:57;18.97;;;12.13;;
21352;SDS011;10834;52.268;6.770;2023-04-06T14:35:43;17.40;;;12.57;;
21352;SDS011;10834;52.268;6.770;2023-04-06T14:38:29;16.83;;;12.43;;
21352;SDS011;10834;52.268;6.770;2023-04-06T14:41:17;19.20;;;11.23;;
21352;SDS011;10834;52.268;6.770;2023-04-06T14:44:03;18.27;;;11.63;;
21352;SDS011;10834;52.268;6.770;2023-04-06T14:46:51;17.30;;;11.97;;
21352;SDS011;10834;52.268;6.770;2023-04-06T14:49:37;18.17;;;11.93;;
21352;SDS011;10834;52.268;6.770;2023-04-06T14:52:23;14.70;;;10.63;;
21352;SDS011;10834;52.268;6.770;2023-04-06T14:55:09;19.10;;;10.90;;
21352;SDS011;10834;52.268;6.770;2023-04-06T14:57:55;17.00;;;10.10;;
21352;SDS011;10834;52.268;6.770;2023-04-06T15:00:41;13.80;;;9.97;;
21352;SDS011;10834;52.268;6.770;2023-04-06T15:03:28;13.73;;;9.60;;
21352;SDS011;10834;52.268;6.770;2023-04-06T15:06:14;17.60;;;9.20;;
21352;SDS011;10834;52.268;6.770;2023-04-06T15:09:01;14.33;;;9.93;;
21352;SDS011;10834;52.268;6.770;2023-04-06T15:11:48;12.77;;;9.53;;
21352;SDS011;10834;52.268;6.770;2023-04-06T15:14:34;16.13;;;9.83;;
21352;SDS011;10834;52.268;6.770;2023-04-06T15:17:20;14.80;;;9.53;;
21352;SDS011;10834;52.268;6.770;2023-04-06T15:20:06;14.30;;;8.67;;
21352;SDS011;10834;52.268;6.770;2023-04-06T15:22:52;11.87;;;8.07;;
21352;SDS011;10834;52.268;6.770;2023-04-06T15:25:38;12.60;;;8.90;;
21352;SDS011;10834;52.268;6.770;2023-04-06T15:28:26;12.60;;;8.33;;
21352;SDS011;10834;52.268;6.770;2023-04-06T15:31:13;12.23;;;7.60;;
21352;SDS011;10834;52.268;6.770;2023-04-06T15:34:03;13.43;;;8.57;;
21352;SDS011;10834;52.268;6.770;2023-04-06T15:36:50;14.10;;;7.63;;
21352;SDS011;10834;52.268;6.770;2023-04-06T15:39:38;9.40;;;7.70;;
21352;SDS011;10834;52.268;6.770;2023-04-06T15:42:24;11.63;;;7.70;;
21352;SDS011;10834;52.268;6.770;2023-04-06T15:45:10;11.77;;;7.37;;
21352;SDS011;10834;52.268;6.770;2023-04-06T15:47:56;12.00;;;7.37;;
21352;SDS011;10834;52.268;6.770;2023-04-06T15:50:42;12.50;;;7.87;;
21352;SDS011;10834;52.268;6.770;2023-04-06T15:53:28;18.53;;;8.27;;
21352;SDS011;10834;52.268;6.770;2023-04-06T15:56:14;10.90;;;8.30;;
21352;SDS011;10834;52.268;6.770;2023-04-06T15:59:01;8.27;;;7.10;;
21352;SDS011;10834;52.268;6.770;2023-04-06T16:01:48;10.17;;;7.37;;
21352;SDS011;10834;52.268;6.770;2023-04-06T16:04:34;11.67;;;7.93;;
21352;SDS011;10834;52.268;6.770;2023-04-06T16:07:21;13.93;;;7.60;;
21352;SDS011;10834;52.268;6.770;2023-04-06T16:10:08;11.80;;;7.33;;
21352;SDS011;10834;52.268;6.770;2023-04-06T16:12:56;11.60;;;7.63;;
21352;SDS011;10834;52.268;6.770;2023-04-06T16:15:42;11.77;;;7.27;;
21352;SDS011;10834;52.268;6.770;2023-04-06T16:18:28;13.30;;;9.03;;
21352;SDS011;10834;52.268;6.770;2023-04-06T16:21:15;14.27;;;8.60;;
21352;SDS011;10834;52.268;6.770;2023-04-06T16:24:02;11.77;;;8.57;;
21352;SDS011;10834;52.268;6.770;2023-04-06T16:26:51;15.03;;;7.63;;